Terminal Aerodrome Forecast
Issued by NWS

Home | Current Version | Previous Version | Text Only | Print | Product List | Glossary On
Versions: 1 2 3 4 5 6 7 8 9 10 11 12 13 14 15 16 17 18 19 20 21 22 23 24 25 26 27 28
897
FTUS41 KBUF 061120
TAFJHW
TAF
KJHW 061120Z 0612/0712 35007KT P6SM SCT250
     FM061600 01013KT P6SM SCT250
     FM062000 36013KT P6SM BKN150
     FM062300 01008KT P6SM BKN090
     FM070300 VRB03KT P6SM BKN080
     FM070700 VRB03KT P6SM BKN020
      AMD LTD TO CLD VIS AND WIND=

USA.gov is the U.S. government's official web portal to all federal, state and local government web resources and services.